Time;durP1;ratioP1;P1;durP2;ratioP2;P2;SDS_P1;SDS_P2;PMS_P1;PMS_P2;Temp;Humidity;BMP_temperature;BMP_pressure;BME280_temperature;BME280_humidity;BME280_pressure;Samples;Min_cycle;Max_cycle;Signal;HPM_P1;HPM_P2
2023/04/05 00:01:50;;;;;;;6.63;4.27;;;;;;;1.06;77.82;101263.41;4974874;28;20210;-71
2023/04/05 00:04:19;;;;;;;7.80;4.37;;;;;;;0.96;78.75;101271.44;4983116;28;20200;-71
2023/04/05 00:06:51;;;;;;;6.10;3.77;;;;;;;0.81;79.77;101268.72;4981826;28;20196;-71
2023/04/05 00:09:19;;;;;;;5.23;3.87;;;;;;;0.92;79.82;101264.22;4982340;28;20224;-71
2023/04/05 00:11:46;;;;;;;6.27;3.90;;;;;;;1.08;78.47;101277.44;4981762;28;20201;-71
2023/04/05 00:14:13;;;;;;;6.37;4.00;;;;;;;1.06;78.24;101276.44;4986483;28;20225;-69
2023/04/05 00:16:40;;;;;;;5.80;3.63;;;;;;;1.18;77.23;101268.50;4987525;28;20196;-71
2023/04/05 00:19:06;;;;;;;6.80;3.97;;;;;;;1.22;77.52;101267.94;4988059;28;20308;-71
2023/04/05 00:21:33;;;;;;;7.20;3.80;;;;;;;1.29;76.33;101257.06;4981976;28;20200;-70
2023/04/05 00:23:59;;;;;;;6.97;3.87;;;;;;;1.34;76.54;101262.59;4979936;28;20232;-71
2023/04/05 00:26:26;;;;;;;6.13;3.53;;;;;;;1.26;76.59;101267.31;4986022;28;20231;-71
2023/04/05 00:28:52;;;;;;;6.93;3.97;;;;;;;1.18;77.04;101265.91;4978912;28;20267;-71
2023/04/05 00:31:19;;;;;;;5.33;3.70;;;;;;;1.18;77.17;101258.97;4982504;28;20198;-71
2023/04/05 00:33:46;;;;;;;5.57;3.73;;;;;;;1.14;77.28;101267.41;4986361;28;20207;-71
2023/04/05 00:36:14;;;;;;;5.90;3.57;;;;;;;1.13;77.26;101259.47;4987685;28;20201;-69
2023/04/05 00:38:42;;;;;;;5.47;3.73;;;;;;;0.97;78.05;101261.91;4978530;28;20252;-71
2023/04/05 00:41:10;;;;;;;7.80;3.80;;;;;;;0.74;78.73;101257.78;4985042;28;20601;-71
2023/04/05 00:43:37;;;;;;;9.73;4.07;;;;;;;0.55;79.98;101256.56;4982412;28;20250;-71
2023/04/05 00:46:07;;;;;;;6.73;3.77;;;;;;;0.60;80.21;101257.78;4988476;28;20196;-71
2023/04/05 00:48:34;;;;;;;7.33;3.60;;;;;;;0.64;79.80;101266.69;4984035;28;20300;-71
2023/04/05 00:51:01;;;;;;;7.67;3.70;;;;;;;0.72;79.91;101262.88;4986091;28;20210;-71
2023/04/05 00:53:28;;;;;;;6.50;3.73;;;;;;;0.58;80.73;101253.25;4976402;28;20273;-70
2023/04/05 00:55:55;;;;;;;5.67;3.47;;;;;;;0.45;81.84;101248.94;4987923;28;20223;-71
2023/04/05 00:58:22;;;;;;;6.97;4.17;;;;;;;0.35;83.11;101254.31;4984608;28;20214;-71
2023/04/05 01:01:22;;;;;;;4.63;3.60;;;;;;;0.32;83.97;101247.19;4991423;28;20218;-71
2023/04/05 01:04:02;;;;;;;6.57;3.57;;;;;;;0.20;83.88;101251.56;4982647;28;20236;-71
2023/04/05 01:06:38;;;;;;;6.30;3.80;;;;;;;0.09;84.60;101241.22;5005252;28;20686;-71
2023/04/05 01:09:18;;;;;;;5.03;3.50;;;;;;;0.00;85.35;101238.91;4983158;28;20228;-71
2023/04/05 01:11:47;;;;;;;7.33;4.07;;;;;;;0.00;85.92;101236.28;4986457;28;20205;-70
2023/04/05 01:14:14;;;;;;;6.43;3.97;;;;;;;-0.11;86.31;101238.13;4992511;28;20206;-70
2023/04/05 01:16:40;;;;;;;5.27;3.83;;;;;;;-0.09;86.61;101228.72;4992080;28;20207;-71
2023/04/05 01:19:08;;;;;;;7.97;4.00;;;;;;;-0.18;87.07;101230.72;4982374;28;20647;-70
2023/04/05 01:21:38;;;;;;;6.00;4.07;;;;;;;-0.11;87.38;101240.75;4991840;28;20705;-71
2023/04/05 01:24:39;;;;;;;5.43;4.17;;;;;;;-0.16;87.61;101233.41;4986931;28;20205;-71
2023/04/05 01:27:13;;;;;;;7.37;3.97;;;;;;;-0.13;87.38;101229.31;4988267;28;20449;-71
2023/04/05 01:29:51;;;;;;;6.97;4.23;;;;;;;-0.13;87.71;101223.22;4975687;28;20230;-71
2023/04/05 01:32:27;;;;;;;6.17;4.27;;;;;;;-0.16;86.78;101223.00;4985165;28;20246;-71
2023/04/05 01:35:09;;;;;;;6.97;4.13;;;;;;;-0.23;87.32;101221.69;4986318;28;20496;-70
2023/04/05 01:37:38;;;;;;;8.40;4.60;;;;;;;-0.34;88.19;101220.94;4991580;28;20870;-71
2023/04/05 01:40:05;;;;;;;7.93;4.40;;;;;;;-0.39;87.33;101214.50;4987391;28;20218;-71
2023/04/05 01:42:32;;;;;;;5.07;3.43;;;;;;;-0.23;86.04;101208.66;4979508;28;20205;-71
2023/04/05 01:44:58;;;;;;;5.73;4.17;;;;;;;-0.12;84.48;101206.78;4981082;28;20203;-71
2023/04/05 01:47:24;;;;;;;7.27;4.07;;;;;;;-0.24;85.32;101203.34;4986834;28;20262;-71
2023/04/05 01:49:51;;;;;;;6.50;4.23;;;;;;;-0.30;85.74;101213.34;4988730;28;21848;-71
2023/04/05 01:52:17;;;;;;;5.87;4.10;;;;;;;-0.28;85.09;101210.03;4985052;28;20200;-71
2023/04/05 01:54:44;;;;;;;5.90;3.63;;;;;;;-0.19;84.03;101213.28;4987320;28;20228;-71
2023/04/05 01:57:10;;;;;;;7.03;4.40;;;;;;;-0.23;84.38;101200.84;4974591;28;20746;-70
2023/04/05 01:59:36;;;;;;;8.47;4.30;;;;;;;0.06;81.25;101200.25;4987738;28;20227;-71
2023/04/05 02:02:03;;;;;;;8.20;3.77;;;;;;;0.08;80.84;101198.66;4987783;28;20559;-71
2023/04/05 02:04:29;;;;;;;7.57;4.10;;;;;;;0.02;81.22;101199.94;4988776;28;20200;-71
2023/04/05 02:06:56;;;;;;;6.67;3.63;;;;;;;0.10;80.00;101190.94;4984383;28;20204;-71
2023/04/05 02:09:22;;;;;;;5.97;3.80;;;;;;;0.09;80.76;101197.84;4990073;28;20247;-70
2023/04/05 02:11:48;;;;;;;5.70;4.00;;;;;;;0.06;81.21;101199.34;4986465;28;20744;-71
2023/04/05 02:14:15;;;;;;;5.97;4.20;;;;;;;-0.09;81.36;101201.78;4987710;28;20205;-70
2023/04/05 02:16:41;;;;;;;6.30;4.20;;;;;;;-0.05;83.01;101207.31;4995494;28;20203;-71
2023/04/05 02:19:09;;;;;;;7.50;4.40;;;;;;;-0.09;83.04;101197.50;4994078;28;20460;-69
2023/04/05 02:21:36;;;;;;;5.70;3.93;;;;;;;-0.17;83.64;101201.28;4978292;28;20204;-70
2023/04/05 02:24:02;;;;;;;6.10;3.73;;;;;;;-0.16;84.21;101199.56;4982478;28;20238;-70
2023/04/05 02:26:28;;;;;;;5.70;4.10;;;;;;;-0.39;84.19;101198.00;4985522;28;20234;-70
2023/04/05 02:28:55;;;;;;;7.73;4.13;;;;;;;-0.52;85.33;101201.41;4983160;28;20221;-71
2023/04/05 02:31:21;;;;;;;7.87;4.50;;;;;;;-0.50;85.57;101199.81;4999720;28;20248;-70
2023/04/05 02:33:48;;;;;;;10.53;4.37;;;;;;;-0.52;86.66;101205.72;4989496;28;20197;-70
2023/04/05 02:36:15;;;;;;;6.53;4.50;;;;;;;-0.57;87.39;101202.81;4978907;28;20211;-70
2023/04/05 02:38:41;;;;;;;7.73;4.97;;;;;;;-0.75;87.92;101191.09;4981263;28;20587;-69
2023/04/05 02:41:10;;;;;;;8.30;4.37;;;;;;;-0.86;88.45;101185.13;4990060;28;20197;-69
2023/04/05 02:43:37;;;;;;;6.97;4.23;;;;;;;-0.87;88.88;101190.22;4989658;28;20204;-70
2023/04/05 02:46:04;;;;;;;7.70;4.30;;;;;;;-0.86;87.45;101198.13;4982917;28;20615;-70
2023/04/05 02:48:31;;;;;;;6.60;4.30;;;;;;;-0.80;85.94;101192.44;4987316;28;20227;-70
2023/04/05 02:50:57;;;;;;;6.87;4.00;;;;;;;-0.80;86.09;101174.25;4989610;28;20250;-70
2023/04/05 02:53:23;;;;;;;7.07;4.37;;;;;;;-0.72;85.64;101181.81;4995690;28;20201;-70
2023/04/05 02:55:54;;;;;;;7.70;4.17;;;;;;;-0.75;86.04;101184.22;4992888;28;20695;-70
2023/04/05 02:58:21;;;;;;;6.93;3.97;;;;;;;-0.77;85.79;101185.81;4987327;28;20248;-70
2023/04/05 03:00:49;;;;;;;6.20;4.00;;;;;;;-0.75;86.20;101179.00;4981151;28;20283;-70
2023/04/05 03:03:17;;;;;;;6.00;4.37;;;;;;;-0.81;87.03;101188.94;4982227;28;20211;-71
2023/04/05 03:05:46;;;;;;;9.87;4.83;;;;;;;-0.73;86.90;101182.63;4989332;28;20204;-71
2023/04/05 03:08:18;;;;;;;7.30;4.17;;;;;;;-0.88;87.24;101193.59;4984557;28;20224;-70
2023/04/05 03:10:45;;;;;;;6.27;4.40;;;;;;;-1.08;88.37;101185.28;4992969;28;20254;-70
2023/04/05 03:13:13;;;;;;;6.77;3.97;;;;;;;-1.11;89.74;101186.78;4983249;28;20229;-70
2023/04/05 03:15:41;;;;;;;7.27;4.27;;;;;;;-1.17;88.95;101184.63;4993393;28;20201;-70
2023/04/05 03:18:08;;;;;;;5.73;4.07;;;;;;;-1.19;89.06;101190.53;4987740;28;20303;-69
2023/04/05 03:20:39;;;;;;;6.00;4.20;;;;;;;-1.26;89.05;101182.25;4988565;28;20712;-70
2023/04/05 03:23:08;;;;;;;7.30;4.67;;;;;;;-1.35;89.56;101201.47;4990733;28;20603;-70
2023/04/05 03:25:39;;;;;;;6.70;4.17;;;;;;;-1.50;89.64;101184.75;4993231;28;20579;-71
2023/04/05 03:28:07;;;;;;;6.40;4.07;;;;;;;-1.72;90.67;101179.66;4982585;28;20244;-69
2023/04/05 03:30:34;;;;;;;9.93;4.53;;;;;;;-1.60;90.17;101178.00;4976733;28;20248;-70
2023/04/05 03:33:01;;;;;;;5.47;3.73;;;;;;;-1.69;90.61;101180.78;4983260;28;20198;-70
2023/04/05 03:35:28;;;;;;;5.87;4.03;;;;;;;-1.76;91.18;101177.63;4981874;28;20201;-70
2023/04/05 03:37:55;;;;;;;6.03;4.33;;;;;;;-1.82;91.87;101175.47;4985110;28;20220;-70
2023/04/05 03:40:23;;;;;;;8.57;4.50;;;;;;;-1.92;92.51;101191.16;4982079;28;20588;-70
2023/04/05 03:42:49;;;;;;;6.97;4.47;;;;;;;-1.88;93.93;101174.13;4983658;28;20737;-70
2023/04/05 03:45:16;;;;;;;7.80;4.50;;;;;;;-1.84;94.11;101176.16;4986543;28;20216;-70
2023/04/05 03:47:49;;;;;;;7.47;4.37;;;;;;;-1.67;92.91;101180.91;4985599;28;20224;-70
2023/04/05 03:50:16;;;;;;;8.77;4.30;;;;;;;-1.77;93.21;101178.41;4988978;28;20232;-70
2023/04/05 03:52:42;;;;;;;7.70;4.83;;;;;;;-1.79;93.30;101180.00;4988768;28;20659;-70
2023/04/05 03:55:08;;;;;;;6.40;3.80;;;;;;;-1.93;93.39;101173.78;4982229;28;20248;-67
2023/04/05 03:57:37;;;;;;;6.00;4.13;;;;;;;-2.06;94.18;101174.53;4983981;28;20217;-70
2023/04/05 04:00:23;;;;;;;5.77;3.97;;;;;;;-2.11;95.45;101172.38;4985222;28;20256;-68
2023/04/05 04:02:51;;;;;;;7.10;4.30;;;;;;;-2.16;96.34;101174.63;4983442;28;20271;-69
2023/04/05 04:05:18;;;;;;;7.50;4.53;;;;;;;-2.24;97.10;101166.25;4985163;28;20239;-69
2023/04/05 04:07:46;;;;;;;7.90;4.40;;;;;;;-2.24;97.83;101166.25;5011648;23;20263;-72
2023/04/05 04:10:16;;;;;;;7.90;4.50;;;;;;;-1.97;97.28;101172.66;4988164;28;20216;-72
2023/04/05 04:12:43;;;;;;;7.30;4.20;;;;;;;-1.65;95.21;101176.72;4986321;28;20250;-73
2023/04/05 04:15:10;;;;;;;8.47;4.50;;;;;;;-1.67;94.79;101174.00;4987887;28;20197;-72
2023/04/05 04:17:37;;;;;;;6.17;4.53;;;;;;;-1.58;94.70;101179.91;4987559;28;20223;-72
2023/04/05 04:20:09;;;;;;;8.67;4.47;;;;;;;-1.69;94.44;101174.69;4979776;28;20221;-72
2023/04/05 04:22:40;;;;;;;10.83;4.60;;;;;;;-1.86;94.71;101175.13;4977532;28;20244;-72
2023/04/05 04:25:09;;;;;;;6.23;4.43;;;;;;;-1.99;95.79;101171.63;4982716;28;20236;-72
2023/04/05 04:27:38;;;;;;;8.20;4.13;;;;;;;-2.10;95.81;101177.66;4984635;28;20677;-72
2023/04/05 04:30:10;;;;;;;9.70;4.87;;;;;;;-2.19;95.89;101179.56;4983882;28;20197;-72
2023/04/05 04:32:53;;;;;;;9.90;4.90;;;;;;;-2.16;95.67;101171.13;4982706;28;20220;-72
2023/04/05 04:35:27;;;;;;;8.20;4.40;;;;;;;-2.22;95.79;101168.97;4984149;28;20232;-72
2023/04/05 04:37:56;;;;;;;8.83;4.60;;;;;;;-2.15;95.78;101181.63;4978475;28;20201;-72
2023/04/05 04:40:45;;;;;;;7.07;4.90;;;;;;;-2.19;96.08;101171.78;4987194;28;20221;-72
2023/04/05 04:43:16;;;;;;;7.60;4.57;;;;;;;-2.12;95.91;101162.78;4989799;28;20291;-72
2023/04/05 04:45:50;;;;;;;6.87;4.00;;;;;;;-2.12;95.72;101166.28;4989562;28;20259;-72
2023/04/05 04:48:17;;;;;;;9.73;4.80;;;;;;;-2.12;95.74;101166.28;4988173;28;20224;-71
2023/04/05 04:50:44;;;;;;;7.47;5.10;;;;;;;-2.19;95.90;101171.78;4988698;28;20629;-71
2023/04/05 04:53:16;;;;;;;6.70;4.40;;;;;;;-2.25;95.90;101167.03;4982241;28;20689;-71
2023/04/05 04:55:42;;;;;;;8.57;4.83;;;;;;;-2.19;95.84;101168.28;4990950;28;20257;-71
2023/04/05 04:58:10;;;;;;;7.27;4.67;;;;;;;-2.21;95.32;101165.59;4983775;28;20276;-72
2023/04/05 05:00:39;;;;;;;7.50;4.60;;;;;;;-2.26;95.24;101178.22;4990053;28;20213;-71
2023/04/05 05:03:07;;;;;;;8.17;4.50;;;;;;;-2.28;94.90;101176.28;4985338;28;20193;-72
2023/04/05 05:05:33;;;;;;;6.43;4.47;;;;;;;-2.36;94.92;101175.69;4984997;28;20208;-72
2023/04/05 05:08:00;;;;;;;7.77;4.50;;;;;;;-2.40;95.43;101184.03;4989717;28;20264;-73
2023/04/05 05:10:26;;;;;;;6.53;4.33;;;;;;;-2.43;95.99;101182.88;4991368;28;20654;-72
2023/04/05 05:12:53;;;;;;;10.03;4.67;;;;;;;-2.45;96.34;101182.75;4989199;28;20240;-72
2023/04/05 05:15:19;;;;;;;5.97;4.20;;;;;;;-2.43;96.83;101181.19;4994589;28;20232;-72
2023/04/05 05:17:46;;;;;;;7.67;4.60;;;;;;;-2.39;96.77;101180.66;4985299;28;20252;-71
2023/04/05 05:20:12;;;;;;;10.63;4.93;;;;;;;-2.35;96.89;101185.28;4973856;28;20495;-71
2023/04/05 05:22:39;;;;;;;12.57;5.43;;;;;;;-2.31;96.93;101187.34;4979279;28;20208;-71
2023/04/05 05:25:06;;;;;;;8.40;5.33;;;;;;;-2.26;96.61;101182.50;4991147;28;20201;-71
2023/04/05 05:27:33;;;;;;;12.57;5.00;;;;;;;-2.18;95.66;101188.25;4985937;28;20193;-72
2023/04/05 05:30:00;;;;;;;6.27;4.20;;;;;;;-2.15;95.65;101192.00;4986990;28;20220;-72
2023/04/05 05:32:26;;;;;;;8.47;4.70;;;;;;;-2.07;95.47;101196.06;4985500;28;20209;-72
2023/04/05 05:34:53;;;;;;;6.70;4.60;;;;;;;-2.02;95.08;101183.44;4989957;28;20284;-72
2023/04/05 05:37:28;;;;;;;6.90;4.87;;;;;;;-1.95;95.09;101173.66;4986539;28;20209;-72
2023/04/05 05:39:54;;;;;;;10.03;5.13;;;;;;;-1.56;94.63;101174.84;4988065;28;20227;-72
2023/04/05 05:42:21;;;;;;;8.77;5.77;;;;;;;-0.75;93.00;101178.09;4986050;28;20672;-72
2023/04/05 05:44:47;;;;;;;8.27;5.20;;;;;;;-0.24;90.04;101183.44;4984896;28;20237;-73
2023/04/05 05:47:13;;;;;;;10.93;5.40;;;;;;;0.09;86.64;101176.13;4988186;28;20228;-72
2023/04/05 05:49:40;;;;;;;9.27;5.30;;;;;;;0.72;84.17;101170.75;4978533;28;20214;-72
2023/04/05 05:52:06;;;;;;;8.10;5.33;;;;;;;1.75;80.02;101169.50;4989599;28;20196;-72
2023/04/05 05:54:32;;;;;;;9.50;5.40;;;;;;;2.61;73.54;101169.34;4987408;28;20229;-72
2023/04/05 05:56:59;;;;;;;7.93;5.27;;;;;;;3.41;70.34;101168.66;4989599;28;20236;-72
2023/04/05 05:59:25;;;;;;;9.40;5.33;;;;;;;3.51;67.20;101158.69;4988375;28;21792;-72
2023/04/05 06:01:52;;;;;;;7.60;5.37;;;;;;;3.41;67.91;101170.38;4983120;28;20926;-72
2023/04/05 06:04:18;;;;;;;8.57;4.33;;;;;;;2.97;69.20;101168.81;4985953;28;20202;-72
2023/04/05 06:06:46;;;;;;;8.73;5.13;;;;;;;2.45;70.40;101172.81;4986887;28;20201;-72
2023/04/05 06:09:14;;;;;;;8.53;4.77;;;;;;;2.07;71.89;101175.75;4984162;28;20226;-72
2023/04/05 06:11:40;;;;;;;10.40;5.43;;;;;;;2.30;70.07;101178.00;4987964;28;20674;-72
2023/04/05 06:14:22;;;;;;;8.00;4.93;;;;;;;2.32;70.44;101183.31;4986365;28;20459;-72
2023/04/05 06:16:48;;;;;;;10.20;4.53;;;;;;;1.97;71.37;101176.00;4988521;28;20626;-73
2023/04/05 06:19:14;;;;;;;6.40;4.80;;;;;;;1.83;72.73;101173.47;4985176;28;20218;-72
2023/04/05 06:21:41;;;;;;;8.53;4.93;;;;;;;2.05;71.44;101180.00;4986651;28;20235;-72
2023/04/05 06:24:07;;;;;;;6.13;5.13;;;;;;;2.14;70.83;101185.75;4987113;28;20683;-73
2023/04/05 06:26:33;;;;;;;8.03;5.37;;;;;;;2.14;70.44;101183.16;4987876;28;20208;-73
2023/04/05 06:29:00;;;;;;;10.07;4.87;;;;;;;2.31;70.28;101182.44;4986635;28;20220;-72
2023/04/05 06:31:30;;;;;;;10.97;5.43;;;;;;;2.43;68.87;101184.88;4985118;28;20211;-73
2023/04/05 06:33:57;;;;;;;7.97;5.13;;;;;;;2.63;68.41;101181.69;4988682;28;20228;-72
2023/04/05 06:36:23;;;;;;;7.77;5.20;;;;;;;3.04;66.31;101176.19;4985957;28;20228;-73
2023/04/05 06:38:52;;;;;;;9.47;5.10;;;;;;;3.23;65.74;101174.63;4985459;28;20341;-73
2023/04/05 06:41:19;;;;;;;9.10;5.67;;;;;;;3.60;64.98;101175.81;4983945;28;20610;-72
2023/04/05 06:43:45;;;;;;;11.47;5.33;;;;;;;3.74;63.10;101185.28;4988775;28;20317;-72
2023/04/05 06:46:12;;;;;;;8.97;5.70;;;;;;;3.80;63.29;101179.47;4985734;28;20275;-73
2023/04/05 06:48:39;;;;;;;9.40;5.37;;;;;;;4.39;61.03;101181.66;4977254;28;20234;-73
2023/04/05 06:51:05;;;;;;;7.33;4.80;;;;;;;5.16;55.56;101171.47;4978796;28;20692;-73
2023/04/05 06:53:31;;;;;;;6.83;4.33;;;;;;;5.39;54.16;101166.41;4988669;28;20224;-73
2023/04/05 06:55:58;;;;;;;7.00;4.87;;;;;;;5.07;54.33;101173.66;4990551;28;20231;-73
2023/04/05 06:58:26;;;;;;;9.67;4.80;;;;;;;4.88;55.21;101171.91;4989041;28;20221;-73
2023/04/05 07:00:53;;;;;;;13.63;5.37;;;;;;;4.92;54.99;101172.94;4990160;28;20267;-73
2023/04/05 07:03:19;;;;;;;17.33;6.57;;;;;;;5.08;55.10;101170.22;4989273;28;20724;-73
2023/04/05 07:06:00;;;;;;;18.37;5.60;;;;;;;5.16;55.47;101168.84;4989825;28;20197;-73
2023/04/05 07:08:30;;;;;;;9.27;5.80;;;;;;;5.81;55.05;101167.47;4984076;28;20221;-73
2023/04/05 07:10:56;;;;;;;10.03;5.93;;;;;;;7.12;50.83;101167.81;4989635;28;20209;-73
2023/04/05 07:13:24;;;;;;;16.57;6.70;;;;;;;7.95;46.43;101169.22;4991459;28;20226;-74
2023/04/05 07:15:51;;;;;;;13.23;6.00;;;;;;;8.00;45.81;101158.00;4984986;28;20415;-73
2023/04/05 07:18:18;;;;;;;11.23;5.50;;;;;;;8.44;44.20;101150.81;4987463;28;20224;-71
2023/04/05 07:20:46;;;;;;;9.63;5.27;;;;;;;8.93;43.22;101155.06;4987865;28;20249;-74
2023/04/05 07:23:13;;;;;;;10.03;5.67;;;;;;;9.24;43.39;101151.66;5001918;28;20251;-74
2023/04/05 07:25:40;;;;;;;11.23;5.13;;;;;;;9.22;41.73;101151.59;4988519;28;20211;-73
2023/04/05 07:28:06;;;;;;;12.07;5.70;;;;;;;8.23;43.18;101148.25;4989520;28;20221;-73
2023/04/05 07:30:33;;;;;;;7.97;5.17;;;;;;;8.20;44.14;101149.91;4987623;28;20196;-74
2023/04/05 07:32:59;;;;;;;7.00;5.10;;;;;;;8.37;44.31;101156.69;4987953;28;20269;-73
2023/04/05 07:35:26;;;;;;;8.17;4.80;;;;;;;8.51;43.18;101144.88;4989641;28;20751;-75
2023/04/05 07:37:53;;;;;;;7.63;5.00;;;;;;;8.60;43.28;101153.09;4988455;28;20231;-76
2023/04/05 07:40:19;;;;;;;10.77;5.00;;;;;;;8.46;43.42;101154.38;4980982;28;20278;-75
2023/04/05 07:42:45;;;;;;;9.63;4.50;;;;;;;7.92;44.72;101150.66;4987351;28;20577;-74
2023/04/05 07:45:12;;;;;;;7.70;4.67;;;;;;;7.76;44.87;101152.75;4987883;28;20230;-74
2023/04/05 07:47:38;;;;;;;6.00;4.23;;;;;;;7.47;45.66;101156.91;4994459;28;20211;-74
2023/04/05 07:50:06;;;;;;;5.87;4.07;;;;;;;7.02;45.57;101149.84;4986598;28;20193;-73
2023/04/05 07:52:32;;;;;;;10.53;4.87;;;;;;;6.32;47.16;101155.75;4986529;28;20298;-73
2023/04/05 07:54:58;;;;;;;6.00;4.50;;;;;;;6.15;48.26;101156.75;4987701;28;20193;-74
2023/04/05 07:57:25;;;;;;;8.37;4.77;;;;;;;5.92;48.43;101161.91;4981873;28;20199;-74
2023/04/05 07:59:53;;;;;;;7.30;4.47;;;;;;;6.11;47.38;101160.09;4983801;28;20225;-74
2023/04/05 08:02:20;;;;;;;7.37;4.50;;;;;;;6.06;47.34;101157.28;4986446;28;20601;-74
2023/04/05 08:04:46;;;;;;;5.63;4.13;;;;;;;6.17;47.43;101152.47;4980993;28;20631;-74
2023/04/05 08:07:13;;;;;;;8.50;3.83;;;;;;;6.30;45.49;101157.41;4985687;28;20219;-73
2023/04/05 08:09:39;;;;;;;7.17;3.60;;;;;;;6.52;44.40;101153.97;4982364;28;20267;-73
2023/04/05 08:12:06;;;;;;;7.77;3.90;;;;;;;6.73;45.07;101154.84;4986999;28;20324;-74
2023/04/05 08:14:32;;;;;;;5.23;3.57;;;;;;;6.96;44.00;101152.25;4986601;28;20632;-73
2023/04/05 08:16:59;;;;;;;8.00;3.90;;;;;;;6.94;42.06;101152.19;4983986;28;20689;-73
2023/04/05 08:19:25;;;;;;;6.60;3.30;;;;;;;6.85;42.38;101143.94;4988246;28;20713;-73
2023/04/05 08:21:52;;;;;;;9.00;3.60;;;;;;;6.96;42.77;101144.34;4986592;28;20225;-73
2023/04/05 08:24:18;;;;;;;7.90;3.57;;;;;;;7.05;43.05;101139.44;4988472;28;20291;-73
2023/04/05 08:26:45;;;;;;;6.10;4.03;;;;;;;7.04;43.01;101141.19;4990664;28;20216;-73
2023/04/05 08:29:11;;;;;;;4.97;3.70;;;;;;;7.36;42.67;101146.81;4990744;28;20224;-73
2023/04/05 08:31:37;;;;;;;7.40;4.20;;;;;;;7.52;43.02;101142.16;4986958;28;20693;-74
2023/04/05 08:34:07;;;;;;;6.17;4.23;;;;;;;7.61;42.57;101140.75;4978839;28;20233;-74
2023/04/05 08:36:33;;;;;;;6.67;3.97;;;;;;;7.65;42.73;101140.91;4984780;28;20229;-74
2023/04/05 08:38:59;;;;;;;6.13;4.20;;;;;;;7.62;43.86;101142.53;4989255;28;20278;-75
2023/04/05 08:41:34;;;;;;;8.80;4.77;;;;;;;7.72;43.23;101145.56;4988624;28;20223;-75
2023/04/05 08:44:02;;;;;;;6.27;4.53;;;;;;;7.79;42.20;101144.03;4987401;28;20202;-73
2023/04/05 08:46:30;;;;;;;5.73;4.17;;;;;;;7.82;43.44;101131.88;4986524;28;20208;-73
2023/04/05 08:48:58;;;;;;;7.60;3.93;;;;;;;7.98;42.85;101135.03;4986972;28;20726;-72
2023/04/05 08:51:25;;;;;;;5.53;4.20;;;;;;;8.07;42.49;101135.41;4989748;28;20206;-73
2023/04/05 08:53:52;;;;;;;6.33;4.20;;;;;;;7.70;42.35;101135.81;4981510;28;20203;-73
2023/04/05 08:56:23;;;;;;;6.53;4.60;;;;;;;7.79;42.96;101131.75;4985920;28;20278;-72
2023/04/05 08:59:04;;;;;;;8.13;4.37;;;;;;;7.97;42.73;101126.22;4989305;28;20223;-76
2023/04/05 09:01:35;;;;;;;8.20;4.23;;;;;;;8.03;41.83;101128.22;4988350;28;20222;-74
2023/04/05 09:04:15;;;;;;;6.30;4.33;;;;;;;8.20;42.50;101115.59;4988340;28;20260;-72
2023/04/05 09:06:43;;;;;;;6.20;4.47;;;;;;;8.39;42.77;101116.31;4989717;28;20753;-73
2023/04/05 09:09:10;;;;;;;7.80;4.40;;;;;;;8.53;42.11;101126.44;4986035;28;20235;-74
2023/04/05 09:11:38;;;;;;;6.57;4.50;;;;;;;8.46;41.05;101120.06;4988970;28;20201;-75
2023/04/05 09:14:06;;;;;;;9.10;4.43;;;;;;;8.43;41.62;101125.25;4988138;28;20211;-75
2023/04/05 09:16:35;;;;;;;7.97;4.50;;;;;;;8.56;41.20;101116.00;4989604;28;20208;-77
2023/04/05 09:19:02;;;;;;;6.83;4.17;;;;;;;8.68;42.43;101119.91;4988445;28;20585;-74
2023/04/05 09:21:29;;;;;;;7.77;4.43;;;;;;;8.83;40.92;101114.25;4992710;28;20312;-75
2023/04/05 09:23:55;;;;;;;4.80;3.90;;;;;;;9.04;40.39;101119.31;4991011;28;20267;-73
2023/04/05 09:26:23;;;;;;;6.37;4.93;;;;;;;9.08;39.89;101114.16;4990386;28;20204;-76
2023/04/05 09:28:50;;;;;;;8.83;4.73;;;;;;;9.03;39.34;101112.22;4983957;28;20224;-74
2023/04/05 09:31:34;;;;;;;5.70;4.57;;;;;;;8.99;39.57;101113.88;4990018;28;20666;-75
2023/04/05 09:34:05;;;;;;;8.27;5.00;;;;;;;8.52;39.52;101111.47;4992098;28;20208;-75
2023/04/05 09:36:34;;;;;;;9.47;4.90;;;;;;;8.40;40.15;101114.56;4989960;28;20200;-74
2023/04/05 09:39:08;;;;;;;7.17;4.90;;;;;;;8.36;41.07;101110.91;4991481;28;20228;-72
2023/04/05 09:41:35;;;;;;;5.57;4.60;;;;;;;8.53;41.36;101108.88;4989756;28;20707;-73
2023/04/05 09:44:02;;;;;;;6.30;4.20;;;;;;;8.52;39.90;101111.47;4987941;28;20212;-72
2023/04/05 09:46:34;;;;;;;5.90;4.30;;;;;;;8.33;39.76;101105.53;5001646;28;20228;-73
2023/04/05 09:49:02;;;;;;;5.80;4.27;;;;;;;8.32;41.21;101113.38;4991863;28;20301;-73
2023/04/05 09:51:37;;;;;;;6.60;4.10;;;;;;;8.42;39.98;101110.25;4983054;28;20200;-73
2023/04/05 09:54:06;;;;;;;6.40;4.60;;;;;;;8.58;40.70;101107.28;4982097;28;20211;-74
2023/04/05 09:56:40;;;;;;;8.53;4.87;;;;;;;8.74;39.32;101104.25;4981051;28;20280;-73
2023/04/05 09:59:11;;;;;;;9.13;4.80;;;;;;;8.69;39.15;101102.34;4982055;28;20302;-73
2023/04/05 10:01:41;;;;;;;5.87;4.10;;;;;;;8.95;40.59;101098.78;4980924;28;20213;-73
2023/04/05 10:04:08;;;;;;;8.37;4.73;;;;;;;9.04;40.57;101093.78;4975264;28;20200;-76
2023/04/05 10:06:36;;;;;;;6.97;4.43;;;;;;;9.23;39.41;101100.53;4979568;28;20198;-74
2023/04/05 10:17:22;;;;;;;5.47;4.43;;;;;;;9.51;38.98;101082.81;5007188;28;20243;-93
2023/04/05 10:54:21;;;;;;;6.57;4.03;;;;;;;9.83;37.01;101066.09;5020359;28;20653;-71
2023/04/05 10:56:49;;;;;;;5.67;4.00;;;;;;;9.94;36.94;101063.75;5019216;28;20630;-71
2023/04/05 10:59:16;;;;;;;5.97;4.37;;;;;;;9.70;37.31;101062.25;5012850;28;20219;-70
2023/04/05 11:01:45;;;;;;;6.00;4.37;;;;;;;9.55;36.89;101058.25;5003820;28;20699;-70
2023/04/05 11:04:16;;;;;;;6.07;4.03;;;;;;;9.53;37.75;101068.78;5004821;28;20205;-70
2023/04/05 11:06:46;;;;;;;5.03;4.40;;;;;;;9.67;37.22;101064.81;5004319;28;20196;-71
2023/04/05 11:09:15;;;;;;;6.93;4.50;;;;;;;9.91;37.96;101067.19;5005002;28;20727;-70
2023/04/05 11:11:44;;;;;;;6.63;4.90;;;;;;;10.10;37.64;101058.03;5004293;28;20732;-71
2023/04/05 11:14:24;;;;;;;7.73;4.80;;;;;;;10.27;35.78;101053.19;5003492;28;20220;-71
2023/04/05 11:16:58;;;;;;;6.40;4.20;;;;;;;10.38;36.84;101048.13;5007104;28;20207;-71
2023/04/05 11:19:44;;;;;;;9.17;4.83;;;;;;;10.48;36.38;101037.84;5016395;28;20710;-71
2023/04/05 11:22:11;;;;;;;6.60;4.27;;;;;;;10.68;36.16;101040.94;5014993;28;20216;-73
2023/04/05 11:24:55;;;;;;;6.47;4.90;;;;;;;10.71;34.40;101053.34;5010752;28;20201;-73
2023/04/05 11:27:27;;;;;;;6.87;4.90;;;;;;;10.56;35.33;101046.84;5001908;28;20200;-69
2023/04/05 11:29:54;;;;;;;7.30;4.50;;;;;;;10.51;34.87;101043.19;5005045;28;20223;-70
2023/04/05 11:32:21;;;;;;;6.30;4.53;;;;;;;10.50;35.60;101035.22;5001457;28;20658;-71
2023/04/05 11:35:04;;;;;;;5.53;4.27;;;;;;;10.50;35.41;101041.41;5006453;28;20714;-70
2023/04/05 11:37:54;;;;;;;8.33;4.80;;;;;;;10.60;35.49;101034.56;4988473;28;20937;-72
2023/04/05 11:40:31;;;;;;;5.90;4.43;;;;;;;10.68;36.07;101030.34;5003448;28;20215;-71
2023/04/05 11:43:02;;;;;;;8.40;4.60;;;;;;;10.82;35.36;101031.56;5005708;28;20228;-71
2023/04/05 11:45:30;;;;;;;7.30;4.60;;;;;;;11.02;34.79;101021.41;4985359;28;20266;-71
2023/04/05 11:48:11;;;;;;;6.93;4.63;;;;;;;10.51;34.69;101024.66;5003134;28;20206;-70
2023/04/05 11:50:40;;;;;;;7.67;4.97;;;;;;;10.03;35.09;101017.28;5005855;28;20208;-71
2023/04/05 11:53:14;;;;;;;6.77;4.53;;;;;;;10.15;35.67;101019.31;5002922;28;20208;-69
2023/04/05 11:55:43;;;;;;;6.90;4.60;;;;;;;10.46;35.27;101022.78;5008676;28;20216;-68
2023/04/05 11:58:30;;;;;;;7.27;4.70;;;;;;;10.58;35.34;101013.34;5002105;28;20200;-71
2023/04/05 12:01:02;;;;;;;7.00;4.87;;;;;;;10.78;34.93;101012.91;4990841;28;20234;-71
2023/04/05 12:03:30;;;;;;;6.30;4.67;;;;;;;10.90;34.51;101011.44;5007379;28;20758;-71
2023/04/05 12:05:58;;;;;;;6.30;4.80;;;;;;;10.95;34.16;101008.88;4992382;28;20202;-70
2023/04/05 12:08:48;;;;;;;7.87;4.47;;;;;;;11.02;35.21;101002.84;4991497;28;20717;-69
2023/04/05 12:11:22;;;;;;;5.87;4.27;;;;;;;11.17;34.42;101000.50;5005977;28;20195;-71
2023/04/05 12:13:53;;;;;;;5.87;4.53;;;;;;;11.15;34.56;101001.34;5002014;28;20720;-71
2023/04/05 12:16:19;;;;;;;7.17;4.73;;;;;;;11.20;33.80;101000.56;4995886;28;20772;-70
2023/04/05 12:18:53;;;;;;;5.30;4.47;;;;;;;11.26;33.64;100984.81;5006046;28;20253;-70
2023/04/05 12:21:20;;;;;;;6.10;4.20;;;;;;;11.14;33.00;100994.25;5004183;28;20222;-72